createdAt,value
2016-10-02T00:00:23.540Z,98.37
2016-10-02T00:01:24.226Z,98.27
2016-10-02T00:02:24.917Z,98.56
2016-10-02T00:03:25.611Z,98.37
2016-10-02T00:04:26.317Z,99.04
2016-10-02T00:05:26.995Z,98.75
2016-10-02T00:06:27.704Z,99.04
2016-10-02T00:07:28.397Z,98.94
2016-10-02T00:08:29.069Z,99.23
2016-10-02T00:09:29.745Z,99.13
2016-10-02T00:10:30.424Z,99.13
2016-10-02T00:11:31.092Z,99.23
2016-10-02T00:12:31.762Z,98.47
2016-10-02T00:13:32.483Z,98.47
2016-10-02T00:14:33.187Z,99.04
2016-10-02T00:15:33.843Z,99.13
2016-10-02T00:16:34.504Z,98.75
2016-10-02T00:17:35.178Z,98.66
2016-10-02T00:18:35.854Z,99.32
2016-10-02T00:19:36.602Z,99.23
2016-10-02T00:20:37.305Z,99.23
2016-10-02T00:21:37.975Z,99.23
2016-10-02T00:22:38.647Z,99.23
2016-10-02T00:23:39.311Z,99.52
2016-10-02T00:24:39.991Z,99.61
2016-10-02T00:25:40.671Z,99.61
2016-10-02T00:26:41.360Z,99.61
2016-10-02T00:27:42.046Z,99.52
2016-10-02T00:28:42.730Z,99.8
2016-10-02T00:29:43.407Z,99.9
2016-10-02T00:30:44.083Z,99.42
2016-10-02T00:31:44.748Z,99.32
2016-10-02T00:32:45.430Z,99.61
2016-10-02T00:33:46.144Z,99.61
2016-10-02T00:34:46.814Z,99.8
2016-10-02T00:35:47.489Z,99.99
2016-10-02T00:36:48.187Z,99.85
2016-10-02T00:37:48.891Z,99.99
2016-10-02T00:38:49.575Z,99.99
2016-10-02T00:39:50.260Z,99.99
2016-10-02T00:40:50.929Z,99.99
2016-10-02T00:41:51.606Z,99.99
2016-10-02T00:42:52.277Z,99.99
2016-10-02T00:43:52.958Z,99.99
2016-10-02T00:44:53.642Z,99.99
2016-10-02T00:45:54.331Z,99.99
2016-10-02T00:46:55.028Z,99.99
2016-10-02T00:47:55.735Z,99.99
2016-10-02T00:48:56.406Z,99.99
2016-10-02T00:49:57.095Z,99.99
2016-10-02T00:50:57.769Z,99.99
2016-10-02T00:51:58.499Z,99.99
2016-10-02T00:52:59.177Z,99.99
2016-10-02T00:53:59.887Z,99.99
2016-10-02T00:55:00.599Z,99.99
2016-10-02T00:56:01.269Z,99.99
2016-10-02T00:57:01.946Z,99.99
2016-10-02T00:58:02.628Z,99.99
2016-10-02T00:59:03.316Z,99.99
2016-10-02T01:00:04.004Z,99.99
2016-10-02T01:01:04.685Z,99.99
2016-10-02T01:02:05.401Z,99.99
2016-10-02T01:03:06.074Z,99.99
2016-10-02T01:04:06.756Z,99.99
2016-10-02T01:05:07.430Z,99.99
2016-10-02T01:06:08.099Z,99.99
2016-10-02T01:07:08.775Z,99.99
2016-10-02T01:08:16.094Z,99.99
2016-10-02T01:09:16.776Z,99.99
2016-10-02T01:10:17.446Z,99.99
2016-10-02T01:11:18.120Z,99.99
2016-10-02T01:12:18.791Z,99.99
2016-10-02T01:13:19.459Z,99.99
2016-10-02T01:14:20.158Z,99.99
2016-10-02T01:15:20.841Z,99.99
2016-10-02T01:16:21.531Z,99.99
2016-10-02T01:17:22.206Z,99.99
2016-10-02T01:18:22.882Z,99.99
2016-10-02T01:19:23.575Z,99.99
2016-10-02T01:20:24.271Z,99.99
2016-10-02T01:21:24.963Z,99.99
2016-10-02T01:22:25.658Z,99.99
2016-10-02T01:23:26.338Z,99.99
2016-10-02T01:24:27.019Z,99.99
2016-10-02T01:25:27.706Z,99.99
2016-10-02T01:26:28.381Z,99.99
2016-10-02T01:27:29.057Z,99.99
2016-10-02T01:28:29.759Z,99.99
2016-10-02T01:29:30.436Z,99.99
2016-10-02T01:30:31.131Z,99.99
2016-10-02T01:31:31.829Z,99.99
2016-10-02T01:32:32.511Z,99.99
2016-10-02T01:33:33.206Z,99.99
2016-10-02T01:34:33.884Z,99.99
2016-10-02T01:35:34.561Z,99.99
2016-10-02T01:36:35.242Z,99.99
2016-10-02T01:37:35.920Z,99.99
2016-10-02T01:38:36.602Z,99.8
2016-10-02T01:39:37.312Z,99.9
2016-10-02T01:40:37.976Z,99.9
2016-10-02T01:41:38.683Z,99.99
2016-10-02T01:42:39.373Z,99.99
2016-10-02T01:43:40.065Z,99.9
2016-10-02T01:44:40.749Z,99.99
2016-10-02T01:45:41.439Z,99.9
2016-10-02T01:46:42.128Z,99.99
2016-10-02T01:47:42.802Z,99.9
2016-10-02T01:48:43.476Z,99.99
2016-10-02T01:49:44.150Z,99.99
2016-10-02T01:50:44.824Z,99.99
2016-10-02T01:51:45.487Z,99.99
2016-10-02T01:52:46.162Z,99.99
2016-10-02T01:53:46.830Z,99.99
2016-10-02T01:54:47.506Z,99.99
2016-10-02T01:55:48.178Z,99.99
2016-10-02T01:56:48.848Z,99.99
2016-10-02T01:57:49.531Z,99.9
2016-10-02T01:58:50.254Z,99.9
2016-10-02T01:59:50.922Z,99.99
2016-10-02T02:00:51.595Z,99.99
2016-10-02T02:01:52.271Z,99.99
2016-10-02T02:02:52.937Z,99.99
2016-10-02T02:03:53.621Z,99.61
2016-10-02T02:04:54.319Z,99.9
2016-10-02T02:05:55.004Z,99.9
2016-10-02T02:06:55.665Z,99.71
2016-10-02T02:07:56.340Z,99.9
2016-10-02T02:08:57.031Z,99.8
2016-10-02T02:09:57.706Z,99.52
2016-10-02T02:10:58.382Z,99.71
2016-10-02T02:11:59.051Z,99.52
2016-10-02T02:12:59.731Z,99.99
2016-10-02T02:14:00.478Z,99.71
2016-10-02T02:15:01.156Z,99.71
2016-10-02T02:16:01.832Z,99.8
2016-10-02T02:17:02.514Z,99.9
2016-10-02T02:18:03.183Z,99.99
2016-10-02T02:19:03.883Z,99.71
2016-10-02T02:20:04.569Z,99.61
2016-10-02T02:21:05.253Z,99.99
2016-10-02T02:22:05.931Z,99.42
2016-10-02T02:23:06.618Z,99.04
2016-10-02T02:24:07.297Z,99.04
2016-10-02T02:25:07.970Z,99.61
2016-10-02T02:26:08.652Z,99.42
2016-10-02T02:27:09.330Z,99.52
2016-10-02T02:28:10.017Z,99.99
2016-10-02T02:29:10.688Z,99.9
2016-10-02T02:30:11.374Z,99.9
2016-10-02T02:31:12.088Z,99.99
2016-10-02T02:32:12.783Z,99.99
2016-10-02T02:33:13.447Z,99.23
2016-10-02T02:34:14.126Z,99.99
2016-10-02T02:35:14.808Z,99.99
2016-10-02T02:36:15.471Z,99.9
2016-10-02T02:37:16.165Z,99.32
2016-10-02T02:38:16.840Z,99.99
2016-10-02T02:39:17.525Z,99.85
2016-10-02T02:40:18.208Z,99.85
2016-10-02T02:41:18.913Z,99.66
2016-10-02T02:42:19.586Z,99.66
2016-10-02T02:43:20.276Z,99.66
2016-10-02T02:44:20.958Z,99.85
2016-10-02T02:45:21.624Z,99.66
2016-10-02T02:46:22.304Z,99.95
2016-10-02T02:47:22.968Z,99.85
2016-10-02T02:48:23.647Z,99.66
2016-10-02T02:49:24.318Z,99.46
2016-10-02T02:50:24.994Z,99.66
2016-10-02T02:51:25.660Z,99.85
2016-10-02T02:52:26.339Z,99.75
2016-10-02T02:53:27.029Z,99.56
2016-10-02T02:54:27.708Z,99.95
2016-10-02T02:55:28.396Z,99.99
2016-10-02T02:56:29.088Z,99.56
2016-10-02T02:57:29.768Z,99.56
2016-10-02T02:58:30.444Z,99.75
2016-10-02T02:59:31.141Z,99.46
2016-10-02T03:00:31.826Z,99.56
2016-10-02T03:01:32.500Z,99.85
2016-10-02T03:02:33.198Z,99.66
2016-10-02T03:03:33.880Z,99.75
2016-10-02T03:04:34.571Z,99.75
2016-10-02T03:05:35.254Z,99.66
2016-10-02T03:06:35.923Z,99.85
2016-10-02T03:07:36.601Z,99.85
2016-10-02T03:08:37.273Z,99.66
2016-10-02T03:09:37.957Z,99.95
2016-10-02T03:10:38.624Z,99.99
2016-10-02T03:11:39.306Z,99.66
2016-10-02T03:12:39.988Z,99.66
2016-10-02T03:13:40.665Z,99.37
2016-10-02T03:14:41.347Z,99.66
2016-10-02T03:15:42.041Z,99.56
2016-10-02T03:16:42.710Z,99.18
2016-10-02T03:17:43.386Z,99.27
2016-10-02T03:18:44.084Z,98.99
2016-10-02T03:19:44.863Z,99.56
2016-10-02T03:20:45.470Z,99.46
2016-10-02T03:21:46.168Z,98.99
2016-10-02T03:22:46.893Z,98.99
2016-10-02T03:23:47.539Z,98.8
2016-10-02T03:24:48.223Z,98.7
2016-10-02T03:25:48.904Z,98.61
2016-10-02T03:26:49.586Z,98.13
2016-10-02T03:27:50.265Z,98.13
2016-10-02T03:28:50.975Z,98.13
2016-10-02T03:29:51.644Z,98.42
2016-10-02T03:30:52.319Z,97.85
2016-10-02T03:31:52.991Z,97.94
2016-10-02T03:32:53.664Z,98.22
2016-10-02T03:33:54.336Z,98.51
2016-10-02T03:34:55.017Z,98.42
2016-10-02T03:35:55.684Z,98.13
2016-10-02T03:36:56.357Z,98.13
2016-10-02T03:37:57.027Z,97.94
2016-10-02T03:38:57.699Z,97.85
2016-10-02T03:39:58.364Z,97.94
2016-10-02T03:40:59.049Z,97.85
2016-10-02T03:41:59.722Z,97.56
2016-10-02T03:43:00.394Z,97.85
2016-10-02T03:44:01.070Z,98.13
2016-10-02T03:45:01.771Z,98.03
2016-10-02T03:46:02.461Z,98.03
2016-10-02T03:47:03.139Z,97.75
2016-10-02T03:48:03.830Z,97.37
2016-10-02T03:49:04.501Z,97.08
2016-10-02T03:50:05.171Z,96.89
2016-10-02T03:51:05.857Z,97.46
2016-10-02T03:52:06.527Z,96.8
2016-10-02T03:53:07.220Z,96.84
2016-10-02T03:54:07.917Z,97.27
2016-10-02T03:55:08.603Z,96.8
2016-10-02T03:56:09.287Z,96.98
2016-10-02T03:57:09.966Z,96.32
2016-10-02T03:58:10.657Z,96.61
2016-10-02T03:59:11.325Z,96.7
2016-10-02T04:00:11.996Z,96.94
2016-10-02T04:01:12.671Z,96.8
2016-10-02T04:02:13.359Z,96.22
2016-10-02T04:03:14.043Z,96.66
2016-10-02T04:04:14.717Z,96.89
2016-10-02T04:05:15.422Z,96.13
2016-10-02T04:06:16.097Z,96.22
2016-10-02T04:07:16.811Z,96.61
2016-10-02T04:08:17.481Z,96.13
2016-10-02T04:09:18.157Z,96.7
2016-10-02T04:10:18.911Z,96.51
2016-10-02T04:11:19.605Z,96.17
2016-10-02T04:12:21.020Z,96.51
2016-10-02T04:13:21.974Z,96.32
2016-10-02T04:14:22.651Z,96.37
2016-10-02T04:15:23.330Z,96.22
2016-10-02T04:16:24.111Z,96.51
2016-10-02T04:17:24.792Z,96.03
2016-10-02T04:18:25.481Z,96.22
2016-10-02T04:19:26.175Z,96.22
2016-10-02T04:20:26.888Z,96.41
2016-10-02T04:21:27.571Z,96.22
2016-10-02T04:22:28.251Z,96.61
2016-10-02T04:23:28.945Z,96.22
2016-10-02T04:24:29.638Z,96.61
2016-10-02T04:25:30.325Z,96.22
2016-10-02T04:26:31.007Z,96.8
2016-10-02T04:27:31.720Z,96.89
2016-10-02T04:28:32.425Z,96.22
2016-10-02T04:29:33.122Z,96.32
2016-10-02T04:30:33.800Z,96.7
2016-10-02T04:31:34.475Z,96.61
2016-10-02T04:32:35.148Z,96.7
2016-10-02T04:33:35.837Z,96.51
2016-10-02T04:34:36.527Z,96.89
2016-10-02T04:35:37.206Z,96.13
2016-10-02T04:36:37.876Z,96.7
2016-10-02T04:37:38.569Z,96.8
2016-10-02T04:38:39.234Z,96.8
2016-10-02T04:39:40.016Z,96.7
2016-10-02T04:40:40.603Z,96.89
2016-10-02T04:41:41.304Z,96.98
2016-10-02T04:42:41.988Z,97.08
2016-10-02T04:43:42.695Z,96.98
2016-10-02T04:44:43.461Z,97.27
2016-10-02T04:45:44.137Z,97.37
2016-10-02T04:46:44.826Z,97.46
2016-10-02T04:47:45.507Z,97.37
2016-10-02T04:48:46.197Z,97.75
2016-10-02T04:49:46.868Z,97.94
2016-10-02T04:50:47.545Z,97.75
2016-10-02T04:51:48.221Z,97.75
2016-10-02T04:52:48.900Z,97.66
2016-10-02T04:53:49.586Z,97.75
2016-10-02T04:54:50.257Z,97.66
2016-10-02T04:55:50.929Z,97.51
2016-10-02T04:56:51.614Z,97.08
2016-10-02T04:57:53.280Z,97.27
2016-10-02T04:58:53.987Z,96.94
2016-10-02T04:59:54.669Z,97.13
2016-10-02T05:00:55.347Z,96.94
2016-10-02T05:01:56.024Z,97.22
2016-10-02T05:02:56.692Z,97.32
2016-10-02T05:03:57.366Z,97.03
2016-10-02T05:04:58.042Z,97.03
2016-10-02T05:05:58.714Z,97.32
2016-10-02T05:06:59.409Z,96.84
2016-10-02T05:08:00.108Z,97.03
2016-10-02T05:09:01.247Z,97.22
2016-10-02T05:10:01.928Z,96.56
2016-10-02T05:11:02.644Z,96.84
2016-10-02T05:12:03.355Z,96.66
2016-10-02T05:13:04.058Z,96.84
2016-10-02T05:14:04.738Z,96.27
2016-10-02T05:15:06.031Z,96.17
2016-10-02T05:16:07.413Z,96.37
2016-10-02T05:17:08.253Z,96.27
2016-10-02T05:18:09.208Z,95.98
2016-10-02T05:19:09.953Z,96.08
2016-10-02T05:20:10.690Z,96.17
2016-10-02T05:21:11.390Z,96.08
2016-10-02T05:22:12.355Z,96.17
2016-10-02T05:23:13.126Z,95.7
2016-10-02T05:24:13.825Z,96.08
2016-10-02T05:25:14.527Z,95.7
2016-10-02T05:26:15.215Z,95.79
2016-10-02T05:27:15.955Z,96.17
2016-10-02T05:28:16.685Z,95.98
2016-10-02T05:29:17.403Z,95.7
2016-10-02T05:30:18.208Z,95.51
2016-10-02T05:31:18.907Z,95.32
2016-10-02T05:32:19.625Z,95.51
2016-10-02T05:33:20.345Z,95.41
2016-10-02T05:34:21.088Z,95.51
2016-10-02T05:35:21.761Z,95.51
2016-10-02T05:36:22.437Z,95.32
2016-10-02T05:37:23.117Z,95.22
2016-10-02T05:38:23.783Z,95.32
2016-10-02T05:39:24.461Z,95.32
2016-10-02T05:40:25.147Z,95.89
2016-10-02T05:41:25.840Z,95.79
2016-10-02T05:42:26.513Z,95.79
2016-10-02T05:43:27.191Z,95.7
2016-10-02T05:44:27.861Z,96.37
2016-10-02T05:45:28.538Z,96.17
2016-10-02T05:46:29.212Z,95.98
2016-10-02T05:47:29.890Z,96.17
2016-10-02T05:48:30.561Z,96.37
2016-10-02T05:49:31.251Z,96.22
2016-10-02T05:50:31.934Z,96.46
2016-10-02T05:51:32.667Z,95.79
2016-10-02T05:52:33.357Z,95.7
2016-10-02T05:53:34.046Z,95.98
2016-10-02T05:54:34.734Z,95.61
2016-10-02T05:55:35.428Z,95.61
2016-10-02T05:56:36.098Z,95.98
2016-10-02T05:57:36.772Z,96.27
2016-10-02T05:58:37.443Z,96.37
2016-10-02T05:59:38.117Z,96.37
2016-10-02T06:00:38.789Z,96.37
2016-10-02T06:01:39.468Z,96.08
2016-10-02T06:02:40.163Z,96.37
2016-10-02T06:03:40.854Z,96.37
2016-10-02T06:04:41.526Z,96.27
2016-10-02T06:05:42.198Z,96.46
2016-10-02T06:06:42.878Z,96.17
2016-10-02T06:07:43.569Z,96.17
2016-10-02T06:08:44.317Z,96.37
2016-10-02T06:09:44.977Z,96.27
2016-10-02T06:10:45.653Z,96.08
2016-10-02T06:11:46.334Z,95.89
2016-10-02T06:12:47.025Z,95.98
2016-10-02T06:13:48.701Z,95.79
2016-10-02T06:14:49.380Z,96.56
2016-10-02T06:15:50.102Z,96.37
2016-10-02T06:16:50.777Z,96.66
2016-10-02T06:17:51.467Z,96.46
2016-10-02T06:18:52.137Z,96.46
2016-10-02T06:19:52.815Z,96.27
2016-10-02T06:20:53.501Z,96.37
2016-10-02T06:21:54.178Z,96.37
2016-10-02T06:22:54.859Z,96.41
2016-10-02T06:23:55.529Z,96.27
2016-10-02T06:24:56.218Z,95.79
2016-10-02T06:25:56.899Z,96.27
2016-10-02T06:26:57.567Z,95.79
2016-10-02T06:27:58.242Z,96.08
2016-10-02T06:28:58.920Z,96.08
2016-10-02T06:29:59.630Z,95.79
2016-10-02T06:31:00.313Z,95.7
2016-10-02T06:32:01.007Z,95.79
2016-10-02T06:33:01.688Z,95.32
2016-10-02T06:34:02.365Z,95.03
2016-10-02T06:35:03.045Z,94.84
2016-10-02T06:36:03.716Z,94.46
2016-10-02T06:37:04.391Z,93.65
2016-10-02T06:38:05.088Z,93.07
2016-10-02T06:39:05.788Z,91.69
2016-10-02T06:40:06.479Z,89.97
2016-10-02T06:41:07.162Z,89.87
2016-10-02T06:42:07.850Z,89.34
2016-10-02T06:43:08.525Z,87.91
2016-10-02T06:44:09.202Z,86.33
2016-10-02T06:45:09.873Z,85.28
2016-10-02T06:46:10.589Z,84.61
2016-10-02T06:47:11.267Z,84.7
2016-10-02T06:48:11.948Z,83.69
2016-10-02T06:49:12.624Z,83.12
2016-10-02T06:50:13.314Z,81.73
2016-10-02T06:51:14.010Z,79.52
2016-10-02T06:52:14.683Z,79.37
2016-10-02T06:53:15.372Z,78.22
2016-10-02T06:54:16.060Z,77.55
2016-10-02T06:55:16.750Z,76.73
2016-10-02T06:56:17.444Z,76.44
2016-10-02T06:57:18.140Z,76.06
2016-10-02T06:58:18.836Z,74.72
2016-10-02T06:59:19.529Z,74.52
2016-10-02T07:00:20.216Z,74.15
2016-10-02T07:01:20.895Z,74.15
2016-10-02T07:02:21.592Z,73.76
2016-10-02T07:03:22.278Z,73.09
2016-10-02T07:04:22.965Z,73.57
2016-10-02T07:05:23.660Z,74.62
2016-10-02T07:06:24.361Z,74.05
2016-10-02T07:07:25.046Z,73.8
2016-10-02T07:08:25.749Z,73.51
2016-10-02T07:09:26.441Z,73.03
2016-10-02T07:10:27.157Z,71.72
2016-10-02T07:11:27.848Z,71.53
2016-10-02T07:12:28.551Z,71.05
2016-10-02T07:13:29.256Z,70.67
2016-10-02T07:14:29.953Z,69.81
2016-10-02T07:15:30.667Z,70.09
2016-10-02T07:16:31.356Z,70.19
2016-10-02T07:17:32.064Z,69.26
2016-10-02T07:18:32.766Z,68.66
2016-10-02T07:19:33.452Z,69.42
2016-10-02T07:20:34.145Z,69.13
2016-10-02T07:21:34.836Z,69.42
2016-10-02T07:22:35.526Z,69.42
2016-10-02T07:23:36.215Z,69.36
2016-10-02T07:24:36.901Z,68.79
2016-10-02T07:25:37.596Z,68.02
2016-10-02T07:26:38.283Z,67.54
2016-10-02T07:27:38.970Z,67.06
2016-10-02T07:28:39.663Z,67.63
2016-10-02T07:29:40.355Z,67.44
2016-10-02T07:30:41.038Z,67.54
2016-10-02T07:31:41.733Z,68.18
2016-10-02T07:32:42.440Z,69.23
2016-10-02T07:33:43.127Z,68.59
2016-10-02T07:34:43.836Z,67.92
2016-10-02T07:35:44.521Z,67.99
2016-10-02T07:36:45.231Z,67.99
2016-10-02T07:37:45.940Z,68.66
2016-10-02T07:38:46.621Z,68.56
2016-10-02T07:39:47.315Z,69.04
2016-10-02T07:40:48.007Z,70.15
2016-10-02T07:41:48.690Z,70.54
2016-10-02T07:42:49.379Z,70.89
2016-10-02T07:43:50.087Z,71.66
2016-10-02T07:44:50.778Z,72.58
2016-10-02T07:45:51.473Z,73.63
2016-10-02T07:46:52.173Z,74.2
2016-10-02T07:47:52.876Z,74.3
2016-10-02T07:48:53.570Z,74.58
2016-10-02T07:49:54.265Z,75.31
2016-10-02T07:50:54.965Z,76.18
2016-10-02T07:51:55.642Z,77.13
2016-10-02T07:52:56.333Z,76.9
2016-10-02T07:53:57.029Z,77.28
2016-10-02T07:54:57.708Z,77.67
2016-10-02T07:55:58.401Z,77.7
2016-10-02T07:56:59.094Z,76.56
2016-10-02T07:57:59.785Z,75.79
2016-10-02T07:59:00.481Z,74.77
2016-10-02T08:00:01.179Z,74.3
2016-10-02T08:01:01.867Z,73.15
2016-10-02T08:02:02.551Z,72.9
2016-10-02T08:03:03.241Z,71.84
2016-10-02T08:04:03.944Z,71.11
2016-10-02T08:05:04.649Z,71.11
2016-10-02T08:06:05.349Z,71.02
2016-10-02T08:07:06.048Z,70.44
2016-10-02T08:08:06.734Z,70.06
2016-10-02T08:09:07.450Z,69.71
2016-10-02T08:10:08.153Z,69.42
2016-10-02T08:11:08.864Z,69.04
2016-10-02T08:12:09.563Z,68.75
2016-10-02T08:13:10.262Z,68.08
2016-10-02T08:14:10.969Z,67.79
2016-10-02T08:15:11.672Z,68.08
2016-10-02T08:16:12.369Z,68.27
2016-10-02T08:17:13.062Z,67.41
2016-10-02T08:18:13.751Z,67.06
2016-10-02T08:19:14.447Z,66.49
2016-10-02T08:20:15.146Z,65.52
2016-10-02T08:21:15.866Z,66
2016-10-02T08:22:16.579Z,65.43
2016-10-02T08:23:17.278Z,64.85
2016-10-02T08:24:17.967Z,64.59
2016-10-02T08:25:18.676Z,63.83
2016-10-02T08:26:19.379Z,63.83
2016-10-02T08:27:20.073Z,63.25
2016-10-02T08:28:20.774Z,63.25
2016-10-02T08:29:21.475Z,63.19
2016-10-02T08:30:22.163Z,63.57
2016-10-02T08:31:22.886Z,63.12
2016-10-02T08:32:23.580Z,64.37
2016-10-02T08:33:24.281Z,65.23
2016-10-02T08:34:24.977Z,65.62
2016-10-02T08:35:25.684Z,64.5
2016-10-02T08:36:26.407Z,63.89
2016-10-02T08:37:27.112Z,63.7
2016-10-02T08:38:27.808Z,63.03
2016-10-02T08:39:28.532Z,63.83
2016-10-02T08:40:29.214Z,63.35
2016-10-02T08:41:29.907Z,62.77
2016-10-02T08:42:30.595Z,62.87
2016-10-02T08:43:31.294Z,62.77
2016-10-02T08:44:32.019Z,62.19
2016-10-02T08:45:32.713Z,62.87
2016-10-02T08:46:33.426Z,61.91
2016-10-02T08:47:34.135Z,61.94
2016-10-02T08:48:34.830Z,61.17
2016-10-02T08:49:35.539Z,61.08
2016-10-02T08:50:36.230Z,62.13
2016-10-02T08:51:36.923Z,61.91
2016-10-02T08:52:37.625Z,62.01
2016-10-02T08:53:38.308Z,62.55
2016-10-02T08:54:39.012Z,64.92
2016-10-02T08:55:39.723Z,65.11
2016-10-02T08:56:40.415Z,65.68
2016-10-02T08:57:41.107Z,66.45
2016-10-02T08:58:41.818Z,67.28
2016-10-02T08:59:42.524Z,67.28
2016-10-02T09:00:43.265Z,67.18
2016-10-02T09:01:43.953Z,67.91
2016-10-02T09:02:44.642Z,67.82
2016-10-02T09:03:45.332Z,68.21
2016-10-02T09:04:46.041Z,68.4
2016-10-02T09:05:46.727Z,68.78
2016-10-02T09:06:47.434Z,69.93
2016-10-02T09:07:48.124Z,70.21
2016-10-02T09:08:48.813Z,70.5
2016-10-02T09:09:49.498Z,70.03
2016-10-02T09:10:50.193Z,69.13
2016-10-02T09:11:50.879Z,70.09
2016-10-02T09:12:51.583Z,70.37
2016-10-02T09:13:52.275Z,70.37
2016-10-02T09:14:52.965Z,70.18
2016-10-02T09:15:53.664Z,70.56
2016-10-02T09:16:54.373Z,71.23
2016-10-02T09:17:55.062Z,71.52
2016-10-02T09:18:55.765Z,72.67
2016-10-02T09:19:56.508Z,72.29
2016-10-02T09:20:57.231Z,70.85
2016-10-02T09:21:57.933Z,71.71
2016-10-02T09:22:58.644Z,71.2
2016-10-02T09:23:59.354Z,71.71
2016-10-02T09:25:00.069Z,71.68
2016-10-02T09:26:00.762Z,71.58
2016-10-02T09:27:01.453Z,73.21
2016-10-02T09:28:02.161Z,71.97
2016-10-02T09:29:02.856Z,72.44
2016-10-02T09:30:03.555Z,72.48
2016-10-02T09:31:04.246Z,71.23
2016-10-02T09:32:04.941Z,70.47
2016-10-02T09:33:05.648Z,70.47
2016-10-02T09:34:06.343Z,71.04
2016-10-02T09:35:07.028Z,70.95
2016-10-02T09:36:07.812Z,71.62
2016-10-02T09:37:08.471Z,71.42
2016-10-02T09:38:09.224Z,72.09
2016-10-02T09:39:09.944Z,71.52
2016-10-02T09:40:10.643Z,70.76
2016-10-02T09:41:11.370Z,69.99
2016-10-02T09:42:12.131Z,70.66
2016-10-02T09:43:12.840Z,70.95
2016-10-02T09:44:13.555Z,70.85
2016-10-02T09:45:14.318Z,71.62
2016-10-02T09:46:15.044Z,72
2016-10-02T09:47:15.782Z,72.09
2016-10-02T09:48:16.560Z,71.33
2016-10-02T09:49:17.340Z,73.05
2016-10-02T09:50:18.109Z,74.36
2016-10-02T09:51:18.837Z,76.56
2016-10-02T09:52:19.639Z,77.61
2016-10-02T09:53:20.380Z,77.51
2016-10-02T09:54:21.134Z,77.99
2016-10-02T09:55:21.824Z,77.8
2016-10-02T09:56:22.524Z,78.28
2016-10-02T09:57:23.286Z,78.19
2016-10-02T09:58:24.003Z,78.47
2016-10-02T09:59:24.816Z,78.09
2016-10-02T10:00:25.682Z,78.38
2016-10-02T10:01:26.415Z,78.38
2016-10-02T10:02:27.195Z,78.19
2016-10-02T10:03:28.015Z,78.19
2016-10-02T10:04:28.788Z,78.66
2016-10-02T10:05:29.538Z,78.47
2016-10-02T10:06:30.274Z,78.95
2016-10-02T10:07:31.012Z,78.76
2016-10-02T10:08:31.780Z,78.28
2016-10-02T10:09:32.603Z,78.09
2016-10-02T10:10:33.582Z,78.09
2016-10-02T10:11:35.012Z,79.14
2016-10-02T10:12:35.853Z,78.76
2016-10-02T10:13:36.707Z,77.9
2016-10-02T10:14:37.399Z,78.28
2016-10-02T10:15:38.107Z,78.28
2016-10-02T10:16:38.792Z,78.38
2016-10-02T10:17:39.551Z,78.38
2016-10-02T10:18:40.378Z,77.8
2016-10-02T10:19:41.270Z,78.47
2016-10-02T10:20:42.225Z,78.38
2016-10-02T10:21:42.963Z,77.61
2016-10-02T10:22:43.688Z,78.09
2016-10-02T10:23:44.435Z,78.66
2016-10-02T10:24:45.186Z,79.05
2016-10-02T10:25:45.920Z,78.76
2016-10-02T10:26:46.716Z,79.05
2016-10-02T10:27:47.465Z,79.14
2016-10-02T10:28:48.212Z,78.47
2016-10-02T10:29:48.948Z,78.38
2016-10-02T10:30:49.657Z,78.95
2016-10-02T10:31:50.551Z,79.39
2016-10-02T10:32:51.053Z,79.43
2016-10-02T10:33:51.735Z,79.68
2016-10-02T10:34:52.459Z,79.43
2016-10-02T10:35:53.153Z,78.86
2016-10-02T10:36:53.830Z,78.47
2016-10-02T10:37:54.517Z,79.14
2016-10-02T10:38:55.227Z,78.66
2016-10-02T10:39:55.924Z,78.86
2016-10-02T10:40:56.621Z,78.28
2016-10-02T10:41:57.291Z,77.9
2016-10-02T10:42:57.974Z,77.99
2016-10-02T10:43:59.055Z,77.8
2016-10-02T10:44:59.742Z,77.8
2016-10-02T10:46:00.439Z,77.8
2016-10-02T10:47:01.117Z,77.99
2016-10-02T10:48:01.794Z,77.33
2016-10-02T10:49:02.509Z,77.42
2016-10-02T10:50:03.187Z,77.23
2016-10-02T10:51:03.882Z,77.33
2016-10-02T10:52:04.579Z,77.23
2016-10-02T10:53:05.290Z,77.04
2016-10-02T10:54:05.982Z,77.04
2016-10-02T10:55:06.683Z,77.33
2016-10-02T10:56:07.388Z,76.94
2016-10-02T10:57:08.074Z,77.13
2016-10-02T10:58:08.764Z,76.94
2016-10-02T10:59:09.452Z,77.51
2016-10-02T11:00:10.138Z,76.75
2016-10-02T11:01:10.837Z,76.75
2016-10-02T11:02:11.519Z,76.31
2016-10-02T11:03:12.198Z,75.93
2016-10-02T11:04:12.874Z,76.02
2016-10-02T11:05:13.559Z,75.98
2016-10-02T11:06:14.258Z,76.6
2016-10-02T11:07:14.938Z,75.93
2016-10-02T11:08:15.746Z,76.5
2016-10-02T11:09:16.582Z,76.4
2016-10-02T11:10:17.260Z,76.12
2016-10-02T11:11:17.979Z,75.93
2016-10-02T11:12:18.676Z,75.35
2016-10-02T11:13:19.503Z,75.64
2016-10-02T11:14:20.199Z,74.97
2016-10-02T11:15:20.874Z,75.16
2016-10-02T11:16:21.573Z,75.07
2016-10-02T11:17:22.267Z,74.77
2016-10-02T11:18:22.951Z,74.77
2016-10-02T11:19:23.644Z,74.77
2016-10-02T11:20:25.134Z,74.4
2016-10-02T11:21:25.822Z,73.82
2016-10-02T11:22:26.705Z,74.3
2016-10-02T11:23:30.359Z,73.82
2016-10-02T11:24:31.051Z,72
2016-10-02T11:25:31.842Z,70.47
2016-10-02T11:26:32.568Z,68.4
2016-10-02T11:27:33.291Z,66.86
2016-10-02T11:28:33.993Z,63.03
2016-10-02T11:29:34.710Z,63.03
2016-10-02T11:30:35.379Z,63.03
2016-10-02T11:31:36.076Z,61.69
2016-10-02T11:32:37.412Z,61.6
2016-10-02T11:33:38.029Z,61.31
2016-10-02T11:34:38.713Z,61.24
2016-10-02T11:35:39.403Z,61.79
2016-10-02T11:36:40.090Z,61.63
2016-10-02T11:37:40.789Z,62.17
2016-10-02T11:38:41.491Z,62.74
2016-10-02T11:39:42.184Z,62.59
2016-10-02T11:40:42.898Z,61.05
2016-10-02T11:41:43.613Z,60.57
2016-10-02T11:42:44.315Z,61.82
2016-10-02T11:43:45.020Z,60.96
2016-10-02T11:44:45.738Z,61.34
2016-10-02T11:45:46.436Z,62.07
2016-10-02T11:46:47.132Z,62.49
2016-10-02T11:47:47.831Z,62.1
2016-10-02T11:48:48.528Z,62.26
2016-10-02T11:49:49.235Z,62.36
2016-10-02T11:50:49.913Z,62.68
2016-10-02T11:51:50.660Z,62.17
2016-10-02T11:52:51.365Z,62.2
2016-10-02T11:53:52.048Z,61.91
2016-10-02T11:54:52.765Z,61.72
2016-10-02T11:55:53.450Z,61.72
2016-10-02T11:56:54.142Z,62.2
2016-10-02T11:57:54.828Z,62.2
2016-10-02T11:58:55.506Z,61.88
2016-10-02T11:59:56.199Z,61.63
2016-10-02T12:00:56.893Z,61.63
2016-10-02T12:01:57.582Z,61.91
2016-10-02T12:02:58.281Z,61.15
2016-10-02T12:03:58.977Z,60.19
2016-10-02T12:04:59.676Z,59.52
2016-10-02T12:06:00.369Z,58.46
2016-10-02T12:07:01.078Z,57.98
2016-10-02T12:08:01.775Z,58.08
2016-10-02T12:09:02.477Z,58.08
2016-10-02T12:10:03.158Z,57.7
2016-10-02T12:11:03.855Z,57.79
2016-10-02T12:12:04.548Z,56.74
2016-10-02T12:13:05.233Z,56.54
2016-10-02T12:14:05.931Z,56.57
2016-10-02T12:15:06.635Z,55.68
2016-10-02T12:16:07.335Z,57.06
2016-10-02T12:17:08.032Z,57.21
2016-10-02T12:18:08.740Z,55.4
2016-10-02T12:19:09.445Z,54.91
2016-10-02T12:20:10.151Z,54.34
2016-10-02T12:21:10.844Z,54.53
2016-10-02T12:22:11.525Z,55.8
2016-10-02T12:23:12.213Z,55.49
2016-10-02T12:24:13.213Z,55.97
2016-10-02T12:25:15.379Z,55.4
2016-10-02T12:26:16.672Z,56.16
2016-10-02T12:27:17.366Z,56.07
2016-10-02T12:28:18.059Z,56.26
2016-10-02T12:29:18.918Z,55.97
2016-10-02T12:30:19.652Z,56.35
2016-10-02T12:31:20.410Z,56.26
2016-10-02T12:32:21.373Z,57.21
2016-10-02T12:33:22.089Z,57.21
2016-10-02T12:34:23.042Z,57.21
2016-10-02T12:35:23.802Z,57.21
2016-10-02T12:36:24.506Z,56.07
2016-10-02T12:37:25.232Z,56.26
2016-10-02T12:38:25.936Z,55.49
2016-10-02T12:39:26.645Z,56.26
2016-10-02T12:40:27.449Z,55.78
2016-10-02T12:41:28.197Z,55.68
2016-10-02T12:42:28.943Z,56.26
2016-10-02T12:43:29.730Z,56.45
2016-10-02T12:44:30.425Z,56.74
2016-10-02T12:45:31.157Z,57.03
2016-10-02T12:46:31.989Z,57.21
2016-10-02T12:47:32.671Z,57.79
2016-10-02T12:48:33.375Z,58.27
2016-10-02T12:49:34.089Z,57.89
2016-10-02T12:50:34.782Z,57.79
2016-10-02T12:51:35.480Z,58.27
2016-10-02T12:52:36.241Z,58.56
2016-10-02T12:53:36.951Z,58.75
2016-10-02T12:54:37.718Z,58.17
2016-10-02T12:55:38.400Z,58.84
2016-10-02T12:56:39.108Z,59.42
2016-10-02T12:57:39.807Z,60
2016-10-02T12:58:40.504Z,59.9
2016-10-02T12:59:41.189Z,61.34
2016-10-02T13:00:42.239Z,61.82
2016-10-02T13:01:42.927Z,64.37
2016-10-02T13:02:43.812Z,65.05
2016-10-02T13:03:44.705Z,67.15
2016-10-02T13:04:45.527Z,68.59